createdAt,value
2022-07-26T00:00:10.554Z,2.42
2022-07-26T00:02:37.223Z,2.28
2022-07-26T00:05:04.060Z,1.95
2022-07-26T00:07:36.625Z,1.80
2022-07-26T00:10:04.722Z,2.25
2022-07-26T00:12:31.886Z,2.03
2022-07-26T00:14:58.516Z,2.50
2022-07-26T00:17:25.193Z,2.03
2022-07-26T00:19:51.766Z,2.83
2022-07-26T00:22:36.714Z,2.17
2022-07-26T00:25:07.468Z,2.28
2022-07-26T00:27:37.131Z,3.38
2022-07-26T00:30:07.695Z,2.22
2022-07-26T00:32:34.532Z,2.42
2022-07-26T00:35:01.211Z,2.80
2022-07-26T00:37:28.102Z,2.67
2022-07-26T00:39:55.528Z,2.80
2022-07-26T00:42:22.193Z,3.00
2022-07-26T00:44:48.836Z,3.33
2022-07-26T00:47:17.436Z,3.47
2022-07-26T00:49:44.083Z,3.47
2022-07-26T00:52:11.216Z,2.53
2022-07-26T00:54:38.772Z,2.20
2022-07-26T00:57:05.526Z,2.58
2022-07-26T00:59:32.544Z,2.95
2022-07-26T01:01:59.213Z,2.25
2022-07-26T01:04:26.061Z,2.97
2022-07-26T01:06:55.947Z,3.40
2022-07-26T01:09:23.032Z,2.95
2022-07-26T01:11:49.926Z,2.75
2022-07-26T01:14:23.810Z,2.47
2022-07-26T01:16:51.086Z,3.10
2022-07-26T01:19:18.294Z,2.95
2022-07-26T01:21:45.814Z,3.50
2022-07-26T01:24:12.576Z,3.40
2022-07-26T01:26:39.212Z,2.38
2022-07-26T01:29:05.963Z,3.65
2022-07-26T01:31:32.754Z,3.03
2022-07-26T01:33:59.725Z,3.10
2022-07-26T01:36:28.833Z,2.55
2022-07-26T01:38:55.452Z,2.63
2022-07-26T01:41:31.619Z,3.35
2022-07-26T01:44:05.065Z,2.92
2022-07-26T01:46:31.901Z,3.00
2022-07-26T01:48:58.645Z,4.00
2022-07-26T01:51:25.484Z,3.60
2022-07-26T01:53:52.111Z,2.92
2022-07-26T01:56:18.844Z,3.05
2022-07-26T01:58:45.491Z,3.05
2022-07-26T02:01:12.520Z,2.88
2022-07-26T02:03:39.200Z,2.92
2022-07-26T02:06:05.934Z,2.95
2022-07-26T02:08:32.586Z,2.90
2022-07-26T02:11:03.773Z,2.97
2022-07-26T02:13:33.119Z,2.65
2022-07-26T02:16:00.905Z,3.45
2022-07-26T02:18:28.306Z,3.30
2022-07-26T02:20:55.366Z,2.75
2022-07-26T02:23:23.701Z,3.10
2022-07-26T02:25:50.515Z,3.42
2022-07-26T02:28:17.178Z,3.00
2022-07-26T02:30:45.195Z,3.03
2022-07-26T02:33:11.991Z,3.53
2022-07-26T02:35:39.039Z,3.22
2022-07-26T02:38:07.142Z,2.78
2022-07-26T02:40:33.995Z,3.00
2022-07-26T02:43:00.823Z,2.80
2022-07-26T02:45:27.642Z,3.15
2022-07-26T02:47:55.111Z,3.85
2022-07-26T02:50:22.773Z,2.50
2022-07-26T02:52:49.927Z,3.33
2022-07-26T02:55:17.579Z,3.03
2022-07-26T02:57:46.187Z,3.08
2022-07-26T03:00:14.645Z,3.22
2022-07-26T03:02:44.286Z,3.20
2022-07-26T03:05:11.205Z,3.47
2022-07-26T03:07:37.842Z,2.75
2022-07-26T03:10:04.825Z,2.72
2022-07-26T03:12:31.487Z,3.60
2022-07-26T03:14:58.251Z,3.05
2022-07-26T03:17:24.801Z,4.05
2022-07-26T03:19:53.829Z,3.42
2022-07-26T03:22:20.510Z,3.05
2022-07-26T03:24:47.053Z,2.65
2022-07-26T03:27:13.773Z,3.45
2022-07-26T03:29:40.448Z,4.00
2022-07-26T03:32:07.215Z,3.35
2022-07-26T03:34:33.787Z,3.17
2022-07-26T03:37:00.456Z,3.53
2022-07-26T03:39:27.095Z,3.45
2022-07-26T03:41:53.682Z,3.67
2022-07-26T03:44:20.198Z,4.63
2022-07-26T03:46:46.962Z,3.47
2022-07-26T03:49:16.876Z,2.75
2022-07-26T03:51:44.274Z,3.38
2022-07-26T03:54:11.400Z,3.75
2022-07-26T03:56:38.468Z,3.10
2022-07-26T03:59:06.182Z,4.50
2022-07-26T04:01:35.020Z,2.60
2022-07-26T04:04:02.237Z,3.72
2022-07-26T04:06:29.113Z,3.38
2022-07-26T04:08:55.733Z,3.70
2022-07-26T04:11:22.493Z,3.40
2022-07-26T04:13:53.310Z,3.28
2022-07-26T04:16:20.546Z,3.25
2022-07-26T04:18:50.164Z,3.13
2022-07-26T04:21:17.037Z,3.47
2022-07-26T04:23:49.195Z,3.97
2022-07-26T04:28:44.220Z,3.75
2022-07-26T04:31:10.840Z,3.40
2022-07-26T04:33:38.134Z,3.05
2022-07-26T04:36:04.974Z,2.80
2022-07-26T04:38:31.600Z,3.05
2022-07-26T04:40:58.243Z,3.25
2022-07-26T04:43:25.275Z,3.67
2022-07-26T04:45:54.090Z,3.90
2022-07-26T04:48:20.674Z,3.10
2022-07-26T04:50:47.314Z,2.70
2022-07-26T04:53:14.088Z,3.20
2022-07-26T04:55:40.944Z,2.95
2022-07-26T04:58:11.112Z,3.15
2022-07-26T05:00:56.821Z,4.00
2022-07-26T05:03:25.467Z,3.65
2022-07-26T05:05:52.466Z,3.28
2022-07-26T05:08:19.726Z,3.65
2022-07-26T05:10:47.777Z,3.65
2022-07-26T05:13:16.297Z,3.40
2022-07-26T05:15:49.848Z,3.55
2022-07-26T05:18:20.832Z,2.83
2022-07-26T05:20:50.941Z,3.55
2022-07-26T05:23:17.555Z,4.00
2022-07-26T05:25:44.125Z,3.45
2022-07-26T05:28:10.849Z,4.00
2022-07-26T05:30:37.754Z,3.13
2022-07-26T05:33:04.786Z,3.20
2022-07-26T05:35:31.311Z,2.90
2022-07-26T05:37:58.037Z,3.33
2022-07-26T05:40:24.668Z,3.75
2022-07-26T05:42:51.231Z,3.38
2022-07-26T05:45:18.237Z,3.67
2022-07-26T05:47:44.795Z,3.53
2022-07-26T05:50:11.504Z,3.33
2022-07-26T05:52:38.085Z,3.17
2022-07-26T05:55:05.081Z,2.55
2022-07-26T05:57:31.657Z,3.40
2022-07-26T05:59:58.307Z,3.47
2022-07-26T06:02:25.207Z,3.28
2022-07-26T06:04:51.919Z,3.17
2022-07-26T06:07:18.715Z,4.10
2022-07-26T06:09:45.434Z,3.75
2022-07-26T06:12:12.081Z,3.58
2022-07-26T06:14:38.802Z,3.08
2022-07-26T06:17:05.677Z,3.80
2022-07-26T06:19:32.456Z,2.85
2022-07-26T06:21:59.191Z,2.47
2022-07-26T06:24:25.830Z,3.17
2022-07-26T06:26:58.100Z,3.47
2022-07-26T06:29:32.650Z,3.40
2022-07-26T06:31:59.505Z,2.72
2022-07-26T06:34:26.157Z,3.30
2022-07-26T06:36:52.957Z,2.53
2022-07-26T06:39:21.769Z,3.67
2022-07-26T06:41:48.472Z,3.03
2022-07-26T06:44:22.652Z,2.85
2022-07-26T06:46:49.821Z,2.47
2022-07-26T06:49:22.397Z,2.85
2022-07-26T06:51:49.817Z,3.00
2022-07-26T06:54:16.472Z,2.90
2022-07-26T06:56:43.101Z,2.83
2022-07-26T06:59:10.250Z,2.67
2022-07-26T07:01:58.967Z,2.83
2022-07-26T07:04:23.787Z,2.80
2022-07-26T07:06:50.457Z,2.42
2022-07-26T07:09:17.494Z,2.72
2022-07-26T07:11:45.779Z,3.65
2022-07-26T07:14:15.099Z,3.15
2022-07-26T07:16:41.755Z,2.28
2022-07-26T07:19:08.407Z,2.50
2022-07-26T07:21:35.188Z,2.50
2022-07-26T07:24:02.024Z,2.53
2022-07-26T07:26:31.581Z,3.55
2022-07-26T07:28:58.606Z,2.85
2022-07-26T07:31:30.422Z,2.22
2022-07-26T07:34:12.720Z,2.00
2022-07-26T07:36:41.177Z,2.72
2022-07-26T07:39:15.648Z,2.90
2022-07-26T07:41:47.897Z,2.88
2022-07-26T07:44:14.506Z,2.40
2022-07-26T07:46:41.218Z,2.38
2022-07-26T07:49:08.242Z,1.95
2022-07-26T07:51:36.351Z,2.10
2022-07-26T07:54:05.713Z,2.30
2022-07-26T07:56:32.947Z,2.28
2022-07-26T07:58:59.784Z,2.47
2022-07-26T08:01:40.349Z,2.47
2022-07-26T08:04:08.867Z,2.45
2022-07-26T08:06:35.848Z,2.33
2022-07-26T08:09:03.915Z,2.42
2022-07-26T08:11:33.842Z,3.08
2022-07-26T08:14:00.847Z,2.40
2022-07-26T08:16:27.513Z,2.15
2022-07-26T08:19:07.794Z,2.05
2022-07-26T08:21:35.567Z,2.70
2022-07-26T08:24:02.430Z,3.08
2022-07-26T08:26:29.231Z,1.80
2022-07-26T08:29:00.083Z,2.40
2022-07-26T08:31:27.859Z,2.30
2022-07-26T08:33:54.954Z,2.47
2022-07-26T08:36:21.658Z,2.22
2022-07-26T08:38:49.707Z,2.38
2022-07-26T08:41:17.586Z,1.98
2022-07-26T08:43:51.916Z,1.52
2022-07-26T08:46:27.778Z,2.15
2022-07-26T08:48:58.335Z,1.92
2022-07-26T08:51:26.078Z,2.40
2022-07-26T08:53:53.455Z,2.42
2022-07-26T08:56:20.086Z,1.80
2022-07-26T08:58:47.065Z,5.53
2022-07-26T09:01:14.081Z,8.13
2022-07-26T09:03:42.158Z,10.70
2022-07-26T09:06:19.452Z,9.60
2022-07-26T09:08:47.343Z,10.48
2022-07-26T09:11:30.512Z,9.60
2022-07-26T09:14:04.742Z,7.57
2022-07-26T09:16:33.351Z,7.25
2022-07-26T09:19:17.718Z,8.40
2022-07-26T09:21:44.343Z,7.28
2022-07-26T09:24:10.970Z,6.35
2022-07-26T09:26:37.659Z,6.18
2022-07-26T09:29:09.193Z,5.95
2022-07-26T09:31:36.779Z,5.22
2022-07-26T09:34:04.594Z,5.03
2022-07-26T09:36:31.941Z,4.07
2022-07-26T09:39:01.126Z,4.43
2022-07-26T09:41:30.853Z,2.95
2022-07-26T09:44:01.249Z,2.58
2022-07-26T09:46:28.778Z,3.42
2022-07-26T09:49:12.241Z,2.80
2022-07-26T09:51:39.199Z,2.80
2022-07-26T09:54:09.249Z,2.55
2022-07-26T09:56:46.783Z,2.15
2022-07-26T09:59:14.993Z,2.20
2022-07-26T10:01:42.473Z,2.50
2022-07-26T10:04:09.630Z,2.10
2022-07-26T10:06:36.431Z,2.38
2022-07-26T10:09:03.535Z,2.00
2022-07-26T10:11:32.528Z,2.47
2022-07-26T10:13:59.266Z,1.77
2022-07-26T10:16:32.743Z,1.70
2022-07-26T10:18:59.390Z,1.83
2022-07-26T10:21:30.794Z,1.77
2022-07-26T10:23:58.634Z,2.13
2022-07-26T10:26:31.497Z,2.40
2022-07-26T10:29:19.473Z,1.77
2022-07-26T10:31:50.425Z,2.45
2022-07-26T10:34:52.787Z,1.60
2022-07-26T10:37:23.822Z,2.00
2022-07-26T10:40:10.402Z,2.05
2022-07-26T10:42:44.679Z,1.58
2022-07-26T10:45:21.111Z,1.83
2022-07-26T10:48:06.506Z,1.30
2022-07-26T10:50:33.619Z,1.50
2022-07-26T10:53:00.526Z,1.70
2022-07-26T10:55:27.125Z,1.45
2022-07-26T10:57:53.771Z,1.42
2022-07-26T11:00:24.596Z,1.70
2022-07-26T11:02:58.568Z,1.48
2022-07-26T11:08:13.875Z,1.23
2022-07-26T11:10:49.219Z,1.58
2022-07-26T11:13:17.366Z,1.38
2022-07-26T11:15:45.367Z,1.52
2022-07-26T11:18:27.721Z,1.55
2022-07-26T11:20:55.136Z,1.67
2022-07-26T11:23:27.884Z,1.73
2022-07-26T11:26:09.607Z,1.50
2022-07-26T11:28:46.446Z,1.00
2022-07-26T11:31:14.354Z,1.13
2022-07-26T11:33:44.499Z,1.30
2022-07-26T11:36:11.216Z,1.15
2022-07-26T11:38:50.433Z,1.02
2022-07-26T11:41:34.994Z,1.10
2022-07-26T11:44:02.607Z,1.15
2022-07-26T11:46:33.713Z,0.90
2022-07-26T11:49:01.179Z,1.35
2022-07-26T11:51:27.814Z,1.15
2022-07-26T11:53:59.740Z,1.00
2022-07-26T11:56:28.278Z,0.88
2022-07-26T11:58:56.521Z,0.75
2022-07-26T12:01:23.710Z,0.90
2022-07-26T12:03:51.476Z,0.95
2022-07-26T12:06:19.832Z,1.10
2022-07-26T12:08:46.439Z,0.70
2022-07-26T12:11:14.533Z,1.10
2022-07-26T12:13:55.492Z,0.77
2022-07-26T12:16:36.382Z,0.90
2022-07-26T12:19:04.055Z,0.65
2022-07-26T12:21:47.763Z,0.55
2022-07-26T12:24:34.408Z,1.08
2022-07-26T12:27:05.390Z,0.60
2022-07-26T12:29:36.259Z,0.93
2022-07-26T12:32:06.593Z,0.40
2022-07-26T12:34:37.673Z,0.60
2022-07-26T12:37:26.563Z,0.90
2022-07-26T12:40:11.071Z,0.60
2022-07-26T12:42:39.675Z,0.98
2022-07-26T12:45:08.675Z,0.65
2022-07-26T12:47:36.216Z,0.80
2022-07-26T12:50:04.296Z,0.80
2022-07-26T12:52:33.813Z,0.80
2022-07-26T12:55:01.146Z,0.60
2022-07-26T12:57:27.867Z,0.50
2022-07-26T12:59:55.588Z,0.77
2022-07-26T13:02:22.309Z,0.75
2022-07-26T13:04:49.434Z,0.63
2022-07-26T13:07:16.529Z,1.23
2022-07-26T13:09:43.583Z,0.77
2022-07-26T13:12:10.804Z,0.60
2022-07-26T13:14:40.545Z,0.60
2022-07-26T13:17:07.632Z,0.70
2022-07-26T13:19:34.559Z,0.68
2022-07-26T13:22:02.312Z,0.82
2022-07-26T13:24:29.404Z,1.77
2022-07-26T13:26:56.844Z,0.70
2022-07-26T13:29:27.509Z,0.68
2022-07-26T13:31:56.345Z,0.82
2022-07-26T13:34:27.589Z,0.50
2022-07-26T13:36:56.190Z,0.70
2022-07-26T13:39:22.955Z,0.57
2022-07-26T13:41:49.554Z,0.80
2022-07-26T13:44:18.183Z,0.80
2022-07-26T13:46:44.942Z,1.00
2022-07-26T13:49:12.609Z,0.70
2022-07-26T13:51:57.361Z,0.70
2022-07-26T13:54:25.692Z,0.93
2022-07-26T13:56:52.615Z,0.90
2022-07-26T13:59:19.540Z,0.68
2022-07-26T14:01:46.601Z,0.80
2022-07-26T14:04:14.932Z,0.75
2022-07-26T14:06:42.121Z,1.02
2022-07-26T14:09:10.950Z,0.80
2022-07-26T14:11:39.349Z,0.88
2022-07-26T14:14:06.478Z,0.70
2022-07-26T14:16:33.606Z,0.70
2022-07-26T14:19:00.688Z,0.90
2022-07-26T14:21:28.213Z,0.82
2022-07-26T14:23:55.640Z,1.17
2022-07-26T14:26:22.350Z,1.10
2022-07-26T14:28:48.987Z,1.20
2022-07-26T14:31:15.802Z,0.85
2022-07-26T14:33:43.142Z,1.23
2022-07-26T14:36:13.215Z,0.95
2022-07-26T14:38:41.125Z,1.27
2022-07-26T14:41:07.995Z,1.00
2022-07-26T14:43:34.621Z,1.73
2022-07-26T14:46:01.658Z,1.48
2022-07-26T14:48:53.103Z,0.93
2022-07-26T14:51:15.159Z,1.17
2022-07-26T14:53:42.187Z,1.50
2022-07-26T14:56:09.057Z,1.00
2022-07-26T14:58:38.717Z,1.45
2022-07-26T15:01:05.778Z,1.23
2022-07-26T15:03:33.863Z,1.40
2022-07-26T15:06:00.488Z,1.20
2022-07-26T15:08:27.156Z,1.58
2022-07-26T15:10:53.742Z,1.42
2022-07-26T15:13:20.374Z,0.90
2022-07-26T15:15:47.536Z,1.58
2022-07-26T15:18:14.270Z,1.65
2022-07-26T15:20:41.524Z,1.25
2022-07-26T15:23:09.525Z,1.52
2022-07-26T15:25:38.447Z,1.85
2022-07-26T15:28:05.133Z,1.15
2022-07-26T15:30:31.987Z,1.05
2022-07-26T15:32:59.255Z,1.20
2022-07-26T15:35:25.918Z,1.60
2022-07-26T15:37:52.602Z,1.40
2022-07-26T15:40:20.774Z,1.73
2022-07-26T15:42:50.018Z,1.67
2022-07-26T15:45:16.656Z,1.27
2022-07-26T15:47:54.741Z,1.48
2022-07-26T15:50:24.909Z,1.73
2022-07-26T15:52:51.795Z,1.92
2022-07-26T15:55:19.159Z,1.42
2022-07-26T15:57:46.424Z,1.45
2022-07-26T16:00:13.882Z,1.58
2022-07-26T16:02:43.755Z,1.30
2022-07-26T16:05:10.951Z,1.38
2022-07-26T16:07:38.361Z,1.50
2022-07-26T16:10:05.153Z,1.70
2022-07-26T16:12:33.179Z,1.52
2022-07-26T16:14:59.887Z,1.33
2022-07-26T16:17:26.447Z,1.75
2022-07-26T16:19:53.088Z,1.50
2022-07-26T16:22:19.763Z,1.52
2022-07-26T16:24:46.431Z,1.20
2022-07-26T16:27:13.035Z,1.73
2022-07-26T16:29:42.740Z,1.60
2022-07-26T16:32:10.502Z,2.28
2022-07-26T16:34:37.485Z,2.83
2022-07-26T16:37:06.878Z,4.15
2022-07-26T16:39:33.415Z,4.13
2022-07-26T16:42:06.758Z,3.00
2022-07-26T16:44:34.158Z,3.15
2022-07-26T16:47:00.866Z,3.17
2022-07-26T16:49:27.636Z,2.58
2022-07-26T16:51:54.295Z,2.30
2022-07-26T16:54:21.298Z,1.95
2022-07-26T16:56:47.915Z,2.10
2022-07-26T16:59:14.875Z,1.75
2022-07-26T17:01:41.816Z,2.28
2022-07-26T17:04:08.520Z,1.55
2022-07-26T17:06:35.106Z,1.50
2022-07-26T17:09:01.679Z,1.80
2022-07-26T17:11:28.382Z,1.58
2022-07-26T17:13:54.932Z,1.80
2022-07-26T17:16:24.692Z,1.92
2022-07-26T17:18:51.909Z,1.63
2022-07-26T17:21:18.484Z,2.05
2022-07-26T17:23:45.060Z,1.60
2022-07-26T17:26:11.703Z,2.10
2022-07-26T17:28:38.341Z,1.30
2022-07-26T17:31:04.865Z,1.75
2022-07-26T17:33:31.784Z,1.58
2022-07-26T17:36:00.732Z,2.10
2022-07-26T17:38:30.289Z,1.98
2022-07-26T17:40:56.858Z,1.40
2022-07-26T17:43:24.539Z,1.70
2022-07-26T17:46:03.377Z,1.85
2022-07-26T17:48:30.060Z,2.13
2022-07-26T17:50:56.683Z,2.10
2022-07-26T17:53:34.253Z,1.55
2022-07-26T17:56:02.140Z,2.22
2022-07-26T17:58:28.852Z,1.77
2022-07-26T18:00:55.508Z,2.42
2022-07-26T18:03:23.219Z,2.50
2022-07-26T18:05:50.915Z,1.88
2022-07-26T18:08:17.524Z,2.40
2022-07-26T18:10:50.544Z,2.22
2022-07-26T18:13:19.660Z,2.10
2022-07-26T18:15:46.859Z,1.45
2022-07-26T18:18:13.436Z,2.30
2022-07-26T18:20:40.188Z,1.88
2022-07-26T18:23:06.796Z,2.13
2022-07-26T18:25:33.419Z,1.85
2022-07-26T18:28:04.700Z,1.75
2022-07-26T18:30:33.405Z,1.70
2022-07-26T18:33:00.038Z,1.60
2022-07-26T18:35:27.333Z,2.10
2022-07-26T18:37:54.552Z,1.38
2022-07-26T18:40:22.271Z,1.80
2022-07-26T18:42:49.116Z,1.85
2022-07-26T18:45:18.821Z,2.30
2022-07-26T18:47:45.489Z,1.60
2022-07-26T18:50:16.906Z,1.65
2022-07-26T18:52:45.208Z,1.13
2022-07-26T18:55:14.756Z,2.00
2022-07-26T18:57:42.505Z,1.88
2022-07-26T19:00:11.000Z,1.63
2022-07-26T19:02:37.639Z,1.98
2022-07-26T19:05:05.027Z,1.70
2022-07-26T19:07:37.359Z,1.70
2022-07-26T19:10:05.286Z,1.30
2022-07-26T19:12:31.902Z,1.65
2022-07-26T19:14:59.972Z,1.55
2022-07-26T19:17:27.466Z,1.33
2022-07-26T19:19:57.244Z,1.35
2022-07-26T19:22:24.502Z,1.80
2022-07-26T19:24:51.301Z,1.55
2022-07-26T19:27:18.346Z,1.45
2022-07-26T19:29:44.922Z,1.50
2022-07-26T19:32:11.568Z,1.63
2022-07-26T19:34:38.232Z,1.23
2022-07-26T19:37:04.977Z,1.23
2022-07-26T19:39:31.659Z,1.60
2022-07-26T19:41:58.330Z,1.83
2022-07-26T19:44:25.235Z,1.10
2022-07-26T19:46:56.985Z,2.20
2022-07-26T19:49:24.489Z,1.58
2022-07-26T19:51:51.111Z,1.40
2022-07-26T19:54:20.106Z,1.30
2022-07-26T19:56:46.718Z,1.77
2022-07-26T19:59:16.932Z,2.60
2022-07-26T20:01:47.584Z,1.50
2022-07-26T20:04:14.469Z,1.95
2022-07-26T20:06:41.090Z,1.40
2022-07-26T20:09:08.407Z,1.50
2022-07-26T20:11:35.894Z,2.30
2022-07-26T20:14:02.507Z,1.80
2022-07-26T20:16:29.297Z,1.60
2022-07-26T20:18:56.000Z,1.80
2022-07-26T20:21:22.702Z,1.65
2022-07-26T20:23:49.369Z,1.83
2022-07-26T20:26:15.969Z,1.77
2022-07-26T20:28:42.583Z,1.60
2022-07-26T20:31:09.264Z,1.40
2022-07-26T20:33:36.098Z,1.50
2022-07-26T20:36:02.659Z,1.40
2022-07-26T20:38:29.261Z,1.27
2022-07-26T20:40:58.182Z,1.60
2022-07-26T20:43:28.020Z,1.70
2022-07-26T20:45:56.912Z,1.65
2022-07-26T20:48:23.663Z,1.30
2022-07-26T20:50:50.303Z,1.10
2022-07-26T20:53:19.438Z,1.23
2022-07-26T20:55:46.375Z,1.40
2022-07-26T20:58:14.672Z,1.70
2022-07-26T21:00:41.644Z,1.50
2022-07-26T21:03:08.814Z,1.38
2022-07-26T21:05:35.661Z,1.35
2022-07-26T21:08:02.254Z,1.20
2022-07-26T21:10:29.401Z,1.30
2022-07-26T21:12:59.514Z,1.50
2022-07-26T21:15:26.168Z,1.48
2022-07-26T21:17:53.190Z,1.33
2022-07-26T21:20:20.172Z,1.30
2022-07-26T21:22:46.790Z,1.13
2022-07-26T21:25:13.408Z,1.30
2022-07-26T21:27:40.135Z,1.10
2022-07-26T21:30:09.468Z,1.20
2022-07-26T21:32:36.093Z,1.10
2022-07-26T21:35:03.005Z,1.30
2022-07-26T21:37:29.738Z,1.20
2022-07-26T21:39:56.427Z,1.40
2022-07-26T21:42:27.564Z,1.08
2022-07-26T21:44:54.086Z,1.27
2022-07-26T21:47:20.686Z,1.33
2022-07-26T21:49:47.402Z,1.27
2022-07-26T21:52:14.054Z,0.90
2022-07-26T21:54:40.589Z,1.02
2022-07-26T21:57:07.640Z,1.05
2022-07-26T21:59:34.220Z,1.17
2022-07-26T22:02:00.953Z,1.40
2022-07-26T22:04:27.590Z,1.13
2022-07-26T22:06:54.108Z,0.93
2022-07-26T22:09:20.769Z,1.30
2022-07-26T22:11:47.358Z,1.20
2022-07-26T22:14:15.264Z,1.00
2022-07-26T22:16:44.282Z,1.27
2022-07-26T22:19:11.325Z,1.17
2022-07-26T22:21:38.148Z,0.93
2022-07-26T22:24:05.008Z,1.27
2022-07-26T22:26:31.614Z,1.40
2022-07-26T22:28:58.860Z,1.38
2022-07-26T22:31:25.689Z,1.33
2022-07-26T22:33:52.482Z,1.00
2022-07-26T22:36:19.345Z,1.92
2022-07-26T22:38:46.435Z,0.75
2022-07-26T22:41:13.141Z,1.15
2022-07-26T22:43:39.747Z,1.02
2022-07-26T22:46:06.487Z,1.05
2022-07-26T22:48:37.843Z,1.02
2022-07-26T22:51:07.631Z,1.10
2022-07-26T22:53:34.719Z,0.93
2022-07-26T22:56:01.259Z,0.95
2022-07-26T22:58:27.820Z,1.58
2022-07-26T23:00:54.608Z,1.13
2022-07-26T23:03:21.919Z,0.90
2022-07-26T23:05:50.075Z,1.08
2022-07-26T23:11:04.425Z,0.88
2022-07-26T23:13:31.138Z,1.10
2022-07-26T23:16:00.932Z,1.15
2022-07-26T23:18:28.154Z,1.20
2022-07-26T23:20:54.916Z,1.20
2022-07-26T23:23:21.467Z,1.00
2022-07-26T23:25:48.059Z,0.90
2022-07-26T23:28:24.884Z,0.98
2022-07-26T23:31:04.838Z,0.90
2022-07-26T23:33:52.092Z,1.05
2022-07-26T23:36:18.137Z,1.00
2022-07-26T23:38:44.849Z,1.40
2022-07-26T23:41:11.484Z,1.13
2022-07-26T23:43:38.040Z,0.93
2022-07-26T23:46:05.628Z,1.10
2022-07-26T23:48:32.332Z,0.90
2022-07-26T23:50:58.926Z,1.02
2022-07-26T23:53:26.874Z,1.20
2022-07-26T23:55:54.141Z,1.08
2022-07-26T23:58:21.059Z,1.05
